Time;durP1;ratioP1;P1;durP2;ratioP2;P2;SDS_P1;SDS_P2;PMS_P1;PMS_P2;Temp;Humidity;BMP_temperature;BMP_pressure;BME280_temperature;BME280_humidity;BME280_pressure;Samples;Min_cycle;Max_cycle;Signal;HPM_P1;HPM_P2
2021/05/16 00:01:19;;;;;;;14.25;3.22;;;;;;;;;;5010830;28;19935;-87
2021/05/16 00:03:48;;;;;;;13.85;3.25;;;;;;;;;;5013152;28;20143;-86
2021/05/16 00:06:17;;;;;;;14.85;4.57;;;;;;;;;;5008697;28;20057;-86
2021/05/16 00:08:47;;;;;;;11.25;2.80;;;;;;;;;;5012844;28;20029;-88
2021/05/16 00:11:14;;;;;;;15.43;3.42;;;;;;;;;;5007529;28;20036;-87
2021/05/16 00:13:41;;;;;;;15.15;3.47;;;;;;;;;;5008991;28;20209;-87
2021/05/16 00:16:08;;;;;;;14.07;3.20;;;;;;;;;;5008983;28;20032;-87
2021/05/16 00:18:35;;;;;;;12.80;3.80;;;;;;;;;;5014188;28;20029;-86
2021/05/16 00:21:01;;;;;;;15.93;3.35;;;;;;;;;;5003646;28;20034;-83
2021/05/16 00:23:29;;;;;;;13.93;3.47;;;;;;;;;;5006717;28;20094;-85
2021/05/16 00:25:55;;;;;;;13.10;3.30;;;;;;;;;;5020639;28;20024;-83
2021/05/16 00:28:21;;;;;;;13.75;3.55;;;;;;;;;;5012327;28;20076;-84
2021/05/16 00:30:47;;;;;;;;;;;;;;;;;;5014489;28;20048;-86
2021/05/16 00:33:15;;;;;;;13.40;3.30;;;;;;;;;;5011181;28;20399;-83
2021/05/16 00:35:41;;;;;;;16.40;3.53;;;;;;;;;;5005549;28;20049;-82
2021/05/16 00:38:09;;;;;;;10.90;3.30;;;;;;;;;;5002147;28;20021;-84
2021/05/16 00:40:36;;;;;;;11.48;3.10;;;;;;;;;;4992023;28;20060;-84
2021/05/16 00:43:07;;;;;;;18.75;3.65;;;;;;;;;;5007593;28;20025;-83
2021/05/16 00:45:34;;;;;;;14.13;3.58;;;;;;;;;;5023553;28;20036;-84
2021/05/16 00:48:03;;;;;;;13.63;3.20;;;;;;;;;;5006813;28;20032;-84
2021/05/16 00:50:32;;;;;;;15.68;2.97;;;;;;;;;;5024349;28;20052;-86
2021/05/16 00:52:58;;;;;;;16.95;3.78;;;;;;;;;;5005423;28;20327;-84
2021/05/16 00:55:24;;;;;;;;;;;;;;;;;;5011459;28;20037;-84
2021/05/16 00:57:51;;;;;;;13.55;3.97;;;;;;;;;;5004511;28;19920;-86
2021/05/16 01:00:18;;;;;;;13.25;3.00;;;;;;;;;;5005392;28;20043;-87
2021/05/16 01:02:45;;;;;;;12.50;3.45;;;;;;;;;;5004838;28;20132;-86
2021/05/16 01:05:12;;;;;;;;;;;;;;;;;;5005502;28;20036;-85
2021/05/16 01:07:38;;;;;;;;;;;;;;;;;;5006654;28;20164;-86
2021/05/16 01:10:05;;;;;;;16.23;4.72;;;;;;;;;;5002959;28;19995;-86
2021/05/16 01:12:40;;;;;;;13.45;3.03;;;;;;;;;;5008754;28;20025;-86
2021/05/16 01:15:07;;;;;;;14.63;4.25;;;;;;;;;;5008421;28;20033;-86
2021/05/16 01:17:33;;;;;;;19.42;4.93;;;;;;;;;;5024900;28;20022;-86
2021/05/16 01:19:59;;;;;;;15.88;4.43;;;;;;;;;;5003313;28;20037;-85
2021/05/16 01:22:26;;;;;;;;;;;;;;;;;;5007703;28;20021;-85
2021/05/16 01:24:53;;;;;;;16.45;4.03;;;;;;;;;;5005385;28;19917;-85
2021/05/16 01:27:22;;;;;;;17.73;4.28;;;;;;;;;;5009385;28;20031;-87
2021/05/16 01:29:49;;;;;;;13.75;4.38;;;;;;;;;;5004865;28;20121;-85
2021/05/16 01:32:21;;;;;;;18.88;4.35;;;;;;;;;;5011349;28;20037;-85
2021/05/16 01:34:50;;;;;;;16.67;4.15;;;;;;;;;;5012414;28;20025;-85
2021/05/16 01:37:17;;;;;;;15.52;3.85;;;;;;;;;;5009288;28;20037;-85
2021/05/16 01:39:48;;;;;;;15.30;4.03;;;;;;;;;;5004752;28;20026;-84
2021/05/16 01:42:18;;;;;;;13.63;3.97;;;;;;;;;;5009881;28;20056;-85
2021/05/16 01:44:46;;;;;;;14.45;3.67;;;;;;;;;;5007365;28;20026;-86
2021/05/16 01:47:12;;;;;;;16.00;4.07;;;;;;;;;;5004888;28;20158;-85
2021/05/16 01:49:42;;;;;;;14.07;4.38;;;;;;;;;;5004684;28;20033;-85
2021/05/16 01:52:11;;;;;;;14.32;4.25;;;;;;;;;;5003948;28;20191;-86
2021/05/16 01:54:39;;;;;;;15.50;4.35;;;;;;;;;;5014588;28;20056;-84
2021/05/16 01:57:06;;;;;;;17.25;4.13;;;;;;;;;;5009189;28;20061;-86
2021/05/16 01:59:34;;;;;;;14.05;4.70;;;;;;;;;;5013591;28;20108;-85
2021/05/16 02:02:00;;;;;;;13.27;3.75;;;;;;;;;;5013893;28;21188;-85
2021/05/16 02:04:31;;;;;;;11.68;3.50;;;;;;;;;;5019973;28;20534;-85
2021/05/16 02:06:57;;;;;;;14.90;4.13;;;;;;;;;;5016850;28;20030;-84
2021/05/16 02:09:26;;;;;;;13.00;4.55;;;;;;;;;;5017460;28;20022;-84
2021/05/16 02:11:55;;;;;;;13.05;3.65;;;;;;;;;;5011529;28;20056;-86
2021/05/16 02:14:23;;;;;;;15.02;3.72;;;;;;;;;;5015470;28;20048;-84
2021/05/16 02:16:50;;;;;;;14.27;4.47;;;;;;;;;;5012293;28;20064;-85
2021/05/16 02:19:19;;;;;;;15.35;4.53;;;;;;;;;;5013143;28;20132;-84
2021/05/16 02:21:51;;;;;;;18.08;4.90;;;;;;;;;;5011038;28;20136;-83
2021/05/16 02:24:18;;;;;;;14.73;3.88;;;;;;;;;;5012580;28;20026;-84
2021/05/16 02:26:47;;;;;;;15.70;3.60;;;;;;;;;;5008090;28;20033;-84
2021/05/16 02:29:15;;;;;;;13.68;3.53;;;;;;;;;;5007892;28;20033;-84
2021/05/16 02:31:42;;;;;;;13.35;3.83;;;;;;;;;;5009686;28;20021;-85
2021/05/16 02:34:10;;;;;;;15.00;3.40;;;;;;;;;;5006755;28;20056;-84
2021/05/16 02:36:40;;;;;;;14.95;3.55;;;;;;;;;;5022649;28;20025;-84
2021/05/16 02:39:08;;;;;;;14.38;3.65;;;;;;;;;;5027149;28;20021;-84
2021/05/16 02:41:36;;;;;;;14.75;3.95;;;;;;;;;;5024842;28;20017;-83
2021/05/16 02:44:05;;;;;;;15.98;4.35;;;;;;;;;;5011491;28;20029;-84
2021/05/16 02:46:33;;;;;;;16.02;4.35;;;;;;;;;;5015214;28;20041;-85
2021/05/16 02:49:05;;;;;;;13.00;3.55;;;;;;;;;;5021542;28;20018;-85
2021/05/16 02:51:35;;;;;;;16.48;5.15;;;;;;;;;;5016456;28;20021;-84
2021/05/16 02:54:03;;;;;;;13.27;4.10;;;;;;;;;;4990056;28;20547;-85
2021/05/16 02:56:30;;;;;;;14.07;4.53;;;;;;;;;;5014781;28;20032;-84
2021/05/16 02:59:00;;;;;;;15.63;4.47;;;;;;;;;;5014342;28;20033;-84
2021/05/16 03:01:28;;;;;;;14.93;3.88;;;;;;;;;;5011284;28;20057;-85
2021/05/16 03:03:54;;;;;;;13.18;3.30;;;;;;;;;;4990059;28;20045;-85
2021/05/16 03:06:21;;;;;;;14.90;3.63;;;;;;;;;;4975380;28;20034;-84
2021/05/16 03:08:50;;;;;;;15.60;4.15;;;;;;;;;;4993586;28;20410;-85
2021/05/16 03:11:21;;;;;;;15.77;4.18;;;;;;;;;;4995832;28;20069;-84
2021/05/16 03:13:50;;;;;;;14.05;3.95;;;;;;;;;;4990944;28;20026;-85
2021/05/16 03:16:27;;;;;;;13.85;4.15;;;;;;;;;;4999508;28;20517;-84
2021/05/16 03:18:56;;;;;;;12.45;3.95;;;;;;;;;;4994564;28;20033;-84
2021/05/16 03:21:23;;;;;;;12.10;3.63;;;;;;;;;;4971416;28;20393;-85
2021/05/16 03:23:51;;;;;;;15.25;4.00;;;;;;;;;;4940490;28;20034;-83
2021/05/16 03:26:18;;;;;;;14.68;3.70;;;;;;;;;;4973728;28;20054;-84
2021/05/16 03:28:48;;;;;;;13.20;3.97;;;;;;;;;;4937190;28;20035;-84
2021/05/16 03:31:16;;;;;;;17.15;4.18;;;;;;;;;;4967055;28;20116;-82
2021/05/16 03:33:44;;;;;;;14.05;4.05;;;;;;;;;;4966661;28;20109;-83
2021/05/16 03:36:14;;;;;;;16.40;4.28;;;;;;;;;;4958081;28;20633;-84
2021/05/16 03:38:42;;;;;;;13.48;3.97;;;;;;;;;;4958790;28;20527;-84
2021/05/16 03:41:09;;;;;;;14.85;3.88;;;;;;;;;;4967051;28;20031;-85
2021/05/16 03:43:38;;;;;;;11.90;3.65;;;;;;;;;;4969763;28;20073;-85
2021/05/16 03:46:08;;;;;;;13.10;3.78;;;;;;;;;;4969148;28;20049;-84
2021/05/16 03:48:36;;;;;;;13.00;4.10;;;;;;;;;;4959878;28;20054;-84
2021/05/16 03:51:05;;;;;;;13.38;3.83;;;;;;;;;;4976510;28;20037;-85
2021/05/16 03:53:34;;;;;;;13.00;3.72;;;;;;;;;;4965582;28;20037;-84
2021/05/16 03:56:02;;;;;;;17.77;4.00;;;;;;;;;;4972294;28;20034;-85
2021/05/16 03:58:30;;;;;;;17.55;4.00;;;;;;;;;;4974599;28;20034;-84
2021/05/16 04:00:57;;;;;;;15.63;4.40;;;;;;;;;;4966888;28;20091;-84
2021/05/16 04:03:25;;;;;;;16.65;4.30;;;;;;;;;;4990794;28;20061;-85
2021/05/16 04:05:54;;;;;;;16.42;4.15;;;;;;;;;;4959177;28;20034;-83
2021/05/16 04:08:24;;;;;;;14.65;3.67;;;;;;;;;;4989387;28;20058;-85
2021/05/16 04:10:51;;;;;;;17.55;3.88;;;;;;;;;;4981253;28;20572;-84
2021/05/16 04:13:21;;;;;;;16.23;4.15;;;;;;;;;;5016781;28;20022;-84
2021/05/16 04:15:54;;;;;;;15.38;4.15;;;;;;;;;;5013422;28;20029;-84
2021/05/16 04:18:23;;;;;;;14.13;3.90;;;;;;;;;;5014243;28;20039;-84
2021/05/16 04:20:51;;;;;;;17.80;3.55;;;;;;;;;;5012730;28;20095;-84
2021/05/16 04:23:20;;;;;;;13.57;3.88;;;;;;;;;;5033531;28;20085;-84
2021/05/16 04:25:48;;;;;;;16.70;4.22;;;;;;;;;;5024823;28;20164;-84
2021/05/16 04:28:18;;;;;;;12.98;3.40;;;;;;;;;;5013890;28;20112;-85
2021/05/16 04:30:45;;;;;;;15.35;3.78;;;;;;;;;;5013446;28;20029;-81
2021/05/16 04:33:16;;;;;;;15.07;4.22;;;;;;;;;;5015067;28;20063;-83
2021/05/16 04:35:46;;;;;;;15.02;3.70;;;;;;;;;;5013433;28;20079;-83
2021/05/16 04:38:14;;;;;;;16.08;4.10;;;;;;;;;;5013113;28;20036;-85
2021/05/16 04:40:42;;;;;;;16.92;4.07;;;;;;;;;;5016714;28;20084;-84
2021/05/16 04:43:12;;;;;;;17.17;3.92;;;;;;;;;;5008152;28;20936;-85
2021/05/16 04:45:41;;;;;;;13.48;3.70;;;;;;;;;;5027118;28;20089;-84
2021/05/16 04:48:08;;;;;;;15.20;3.78;;;;;;;;;;5015650;28;20025;-84
2021/05/16 04:50:38;;;;;;;15.02;4.13;;;;;;;;;;5018009;28;20072;-84
2021/05/16 04:53:07;;;;;;;18.48;4.13;;;;;;;;;;5015364;28;20044;-84
2021/05/16 04:55:34;;;;;;;13.25;3.63;;;;;;;;;;5013580;28;20096;-85
2021/05/16 04:58:00;;;;;;;;;;;;;;;;;;5013315;28;20033;-84
2021/05/16 05:00:27;;;;;;;15.57;4.00;;;;;;;;;;5016041;28;20008;-84
2021/05/16 05:02:55;;;;;;;12.85;3.80;;;;;;;;;;5003949;28;20524;-85
2021/05/16 05:05:24;;;;;;;15.25;3.83;;;;;;;;;;5017022;28;20056;-85
2021/05/16 05:07:50;;;;;;;17.27;4.03;;;;;;;;;;5016571;28;20033;-85
2021/05/16 05:10:17;;;;;;;;;;;;;;;;;;5017702;28;20021;-84
2021/05/16 05:12:44;;;;;;;14.30;3.83;;;;;;;;;;5014806;28;19945;-84
2021/05/16 05:15:13;;;;;;;15.65;4.00;;;;;;;;;;5013763;28;20169;-84
2021/05/16 05:17:41;;;;;;;16.17;3.95;;;;;;;;;;5012388;28;20087;-85
2021/05/16 05:20:11;;;;;;;18.42;3.80;;;;;;;;;;4995478;28;20037;-84
2021/05/16 05:22:38;;;;;;;14.52;3.58;;;;;;;;;;5015119;28;20061;-85
2021/05/16 05:25:06;;;;;;;15.18;3.60;;;;;;;;;;5011382;28;20045;-84
2021/05/16 05:27:33;;;;;;;16.40;3.90;;;;;;;;;;5017287;28;20032;-85
2021/05/16 05:30:03;;;;;;;14.80;3.65;;;;;;;;;;5012707;28;20041;-85
2021/05/16 05:32:31;;;;;;;13.95;3.25;;;;;;;;;;5017547;28;20028;-85
2021/05/16 05:35:03;;;;;;;16.90;4.00;;;;;;;;;;5010021;28;20061;-85
2021/05/16 05:37:30;;;;;;;15.15;4.40;;;;;;;;;;5015506;28;20044;-83
2021/05/16 05:39:59;;;;;;;17.38;3.70;;;;;;;;;;5010214;28;20029;-82
2021/05/16 05:42:27;;;;;;;14.35;3.47;;;;;;;;;;5010989;28;20134;-84
2021/05/16 05:44:56;;;;;;;12.27;3.47;;;;;;;;;;5011016;28;20025;-83
2021/05/16 05:47:25;;;;;;;19.63;4.30;;;;;;;;;;5011376;28;20468;-83
2021/05/16 05:49:56;;;;;;;15.38;3.50;;;;;;;;;;5010308;28;20022;-85
2021/05/16 05:52:24;;;;;;;14.93;3.70;;;;;;;;;;5011566;28;20030;-83
2021/05/16 05:54:52;;;;;;;16.58;3.65;;;;;;;;;;5013669;28;20036;-85
2021/05/16 05:57:20;;;;;;;15.60;3.97;;;;;;;;;;5010839;28;20041;-85
2021/05/16 05:59:54;;;;;;;13.85;3.33;;;;;;;;;;5013992;28;20056;-83
2021/05/16 06:02:21;;;;;;;13.43;3.80;;;;;;;;;;5012828;28;20098;-85
2021/05/16 06:04:48;;;;;;;13.77;3.33;;;;;;;;;;5014264;28;20014;-83
2021/05/16 06:07:17;;;;;;;15.20;3.38;;;;;;;;;;5009614;28;20042;-84
2021/05/16 06:09:47;;;;;;;14.13;3.28;;;;;;;;;;5014380;28;20069;-83
2021/05/16 06:12:15;;;;;;;14.27;3.17;;;;;;;;;;5011440;28;20042;-84
2021/05/16 06:14:47;;;;;;;13.95;3.75;;;;;;;;;;5016251;28;20045;-84
2021/05/16 06:17:15;;;;;;;16.20;3.78;;;;;;;;;;5007625;28;20037;-85
2021/05/16 06:19:43;;;;;;;16.38;3.80;;;;;;;;;;5013844;28;20074;-83
2021/05/16 06:22:13;;;;;;;14.25;3.17;;;;;;;;;;5007975;28;20811;-84
2021/05/16 06:24:43;;;;;;;14.07;3.60;;;;;;;;;;5009396;28;20071;-85
2021/05/16 06:27:13;;;;;;;12.77;2.90;;;;;;;;;;5007025;28;20038;-84
2021/05/16 06:29:40;;;;;;;15.88;3.47;;;;;;;;;;5007877;28;20022;-85
2021/05/16 06:32:11;;;;;;;13.38;3.30;;;;;;;;;;5011214;28;20026;-84
2021/05/16 06:34:39;;;;;;;13.18;2.90;;;;;;;;;;5016092;28;20034;-84
2021/05/16 06:37:08;;;;;;;13.82;3.25;;;;;;;;;;5004918;28;20033;-84
2021/05/16 06:39:35;;;;;;;15.80;3.42;;;;;;;;;;5020934;28;20044;-84
2021/05/16 06:42:05;;;;;;;13.40;3.20;;;;;;;;;;5007862;28;20472;-83
2021/05/16 06:44:33;;;;;;;14.68;3.90;;;;;;;;;;5015336;28;20092;-86
2021/05/16 06:50:15;;;;;;;14.18;3.38;;;;;;;;;;5010397;28;20512;-82
2021/05/16 06:52:43;;;;;;;14.93;2.70;;;;;;;;;;5018116;28;20176;-81
2021/05/16 06:55:11;;;;;;;14.18;3.20;;;;;;;;;;5003717;28;21097;-80
2021/05/16 06:57:42;;;;;;;14.55;3.22;;;;;;;;;;5018125;28;20049;-80
2021/05/16 07:00:09;;;;;;;11.73;2.95;;;;;;;;;;5006695;28;21711;-82
2021/05/16 07:02:38;;;;;;;13.65;2.78;;;;;;;;;;5011494;28;20045;-81
2021/05/16 07:05:07;;;;;;;12.65;2.55;;;;;;;;;;5006403;28;20881;-80
2021/05/16 07:07:36;;;;;;;10.75;2.60;;;;;;;;;;5012257;28;20489;-81
2021/05/16 07:10:06;;;;;;;11.65;2.60;;;;;;;;;;5020661;28;20458;-85
2021/05/16 07:12:35;;;;;;;11.80;3.08;;;;;;;;;;5022404;28;20017;-86
2021/05/16 07:15:11;;;;;;;11.18;2.63;;;;;;;;;;5024344;28;20022;-86
2021/05/16 07:17:39;;;;;;;;;;;;;;;;;;5018099;28;20029;-85
2021/05/16 07:20:22;;;;;;;12.15;2.95;;;;;;;;;;5017485;28;19913;-85
2021/05/16 07:22:54;;;;;;;11.23;2.75;;;;;;;;;;4985103;28;20103;-80
2021/05/16 07:25:25;;;;;;;15.88;2.85;;;;;;;;;;5013484;28;20137;-82
2021/05/16 07:27:54;;;;;;;12.63;2.65;;;;;;;;;;5007566;28;20025;-84
2021/05/16 07:30:22;;;;;;;12.57;2.88;;;;;;;;;;5015867;28;20037;-85
2021/05/16 07:32:50;;;;;;;12.35;3.17;;;;;;;;;;5031754;28;20553;-85
2021/05/16 07:35:18;;;;;;;12.90;2.92;;;;;;;;;;5018761;28;20049;-87
2021/05/16 07:37:47;;;;;;;13.20;3.05;;;;;;;;;;5025560;28;20036;-87
2021/05/16 07:40:16;;;;;;;14.25;3.47;;;;;;;;;;5029840;28;20110;-86
2021/05/16 07:42:43;;;;;;;14.13;3.08;;;;;;;;;;5032841;28;20045;-86
2021/05/16 07:45:12;;;;;;;13.40;3.00;;;;;;;;;;5016937;28;20033;-85
2021/05/16 07:47:40;;;;;;;14.95;2.63;;;;;;;;;;5029965;28;20025;-87
2021/05/16 07:50:14;;;;;;;12.52;2.63;;;;;;;;;;5018613;28;20021;-85
2021/05/16 07:52:42;;;;;;;10.93;2.72;;;;;;;;;;5036501;28;20041;-85
2021/05/16 07:55:12;;;;;;;12.85;3.00;;;;;;;;;;5015780;28;20053;-86
2021/05/16 07:57:40;;;;;;;14.45;3.08;;;;;;;;;;5020654;28;20101;-86
2021/05/16 08:00:18;;;;;;;11.73;2.72;;;;;;;;;;5019629;28;20029;-85
2021/05/16 08:02:46;;;;;;;12.40;2.45;;;;;;;;;;5003378;28;20049;-86
2021/05/16 08:05:15;;;;;;;11.82;2.65;;;;;;;;;;5010339;28;20029;-86
2021/05/16 08:07:42;;;;;;;14.48;2.67;;;;;;;;;;5015389;28;20025;-85
2021/05/16 08:10:11;;;;;;;10.93;2.47;;;;;;;;;;5016910;28;21021;-85
2021/05/16 08:12:38;;;;;;;12.20;2.70;;;;;;;;;;5031561;28;20550;-85
2021/05/16 08:15:07;;;;;;;11.93;2.30;;;;;;;;;;5013360;28;20448;-85
2021/05/16 08:17:35;;;;;;;10.30;2.45;;;;;;;;;;5013554;28;20381;-85
2021/05/16 08:20:06;;;;;;;10.30;2.28;;;;;;;;;;4992970;28;20124;-82
2021/05/16 08:22:33;;;;;;;20.35;2.90;;;;;;;;;;5016377;28;20529;-85
2021/05/16 08:25:04;;;;;;;10.30;2.00;;;;;;;;;;5014012;28;20026;-86
2021/05/16 08:27:33;;;;;;;13.55;2.72;;;;;;;;;;5013836;28;20137;-81
2021/05/16 08:30:00;;;;;;;10.50;2.20;;;;;;;;;;5005512;28;20385;-82
2021/05/16 08:32:26;;;;;;;13.50;2.90;;;;;;;;;;5009157;28;20029;-81
2021/05/16 08:34:59;;;;;;;9.80;2.72;;;;;;;;;;5007309;28;20120;-81
2021/05/16 08:37:25;;;;;;;11.05;2.63;;;;;;;;;;5010379;28;20150;-83
2021/05/16 08:39:53;;;;;;;11.50;2.50;;;;;;;;;;5010268;28;20038;-84
2021/05/16 08:42:20;;;;;;;10.90;2.30;;;;;;;;;;4995488;28;20041;-83
2021/05/16 08:44:53;;;;;;;9.98;2.17;;;;;;;;;;5009653;28;20696;-82
2021/05/16 08:47:20;;;;;;;8.25;1.80;;;;;;;;;;4978792;28;20041;-84
2021/05/16 08:49:48;;;;;;;9.60;2.20;;;;;;;;;;5010159;28;20049;-84
2021/05/16 08:52:15;;;;;;;9.05;1.83;;;;;;;;;;5011616;28;20052;-87
2021/05/16 08:54:45;;;;;;;9.57;2.00;;;;;;;;;;5012150;28;20040;-86
2021/05/16 08:57:13;;;;;;;10.25;2.15;;;;;;;;;;5014090;28;20711;-86
2021/05/16 08:59:59;;;;;;;8.43;1.85;;;;;;;;;;5015739;28;20029;-86
2021/05/16 09:02:26;;;;;;;10.88;1.98;;;;;;;;;;4999209;28;20124;-86
2021/05/16 09:04:53;;;;;;;9.63;2.15;;;;;;;;;;5011501;28;20060;-87
2021/05/16 09:07:28;;;;;;;8.10;1.88;;;;;;;;;;5014149;28;20074;-88
2021/05/16 09:09:55;;;;;;;9.45;1.98;;;;;;;;;;5010789;28;20663;-87
2021/05/16 09:12:22;;;;;;;10.23;2.00;;;;;;;;;;5019159;28;20377;-89
2021/05/16 09:15:00;;;;;;;10.05;2.22;;;;;;;;;;5013771;28;20037;-88
2021/05/16 09:17:30;;;;;;;12.85;1.98;;;;;;;;;;5016197;28;20436;-87
2021/05/16 09:20:24;;;;;;;9.55;2.25;;;;;;;;;;5023703;28;21217;-89
2021/05/16 09:22:53;;;;;;;7.68;2.03;;;;;;;;;;5019559;28;20046;-88
2021/05/16 09:25:45;;;;;;;7.85;1.80;;;;;;;;;;4995926;28;20045;-88
2021/05/16 09:28:15;;;;;;;9.63;1.60;;;;;;;;;;5007967;28;20823;-87
2021/05/16 09:30:42;;;;;;;9.13;1.85;;;;;;;;;;5006138;28;20037;-89
2021/05/16 09:33:17;;;;;;;7.85;2.00;;;;;;;;;;5007630;28;20069;-88
2021/05/16 09:35:47;;;;;;;6.90;1.58;;;;;;;;;;5015551;28;20037;-86
2021/05/16 09:38:20;;;;;;;7.43;1.40;;;;;;;;;;5017057;28;20843;-87
2021/05/16 09:40:52;;;;;;;5.63;1.38;;;;;;;;;;5015180;28;20053;-89
2021/05/16 09:43:30;;;;;;;6.18;1.30;;;;;;;;;;4996609;28;20569;-86
2021/05/16 09:46:09;;;;;;;5.30;1.23;;;;;;;;;;5005666;28;20025;-86
2021/05/16 09:48:38;;;;;;;6.10;1.25;;;;;;;;;;5011844;28;20033;-87
2021/05/16 09:51:09;;;;;;;6.45;1.67;;;;;;;;;;5023047;28;20144;-87
2021/05/16 09:53:53;;;;;;;8.15;1.58;;;;;;;;;;5007695;28;20033;-87
2021/05/16 09:56:39;;;;;;;10.23;4.30;;;;;;;;;;5010669;28;20119;-87
2021/05/16 09:59:13;;;;;;;8.50;2.47;;;;;;;;;;5010020;28;20037;-87
2021/05/16 10:01:42;;;;;;;5.60;1.17;;;;;;;;;;4899275;28;3343051;-88
2021/05/16 10:04:08;;;;;;;5.72;1.40;;;;;;;;;;5019252;28;20053;-88
2021/05/16 10:06:41;;;;;;;5.05;1.30;;;;;;;;;;5029695;28;20136;-88
2021/05/16 10:09:09;;;;;;;7.07;1.88;;;;;;;;;;5028460;28;20036;-88
2021/05/16 10:11:38;;;;;;;5.20;1.38;;;;;;;;;;5028601;28;20038;-89
2021/05/16 10:14:11;;;;;;;5.18;1.25;;;;;;;;;;5027604;28;20046;-88
2021/05/16 10:16:46;;;;;;;6.80;1.35;;;;;;;;;;5026033;28;20152;-88
2021/05/16 10:19:17;;;;;;;4.82;1.10;;;;;;;;;;5015106;28;21413;-86
2021/05/16 10:21:46;;;;;;;6.40;1.40;;;;;;;;;;5016311;28;20470;-88
2021/05/16 10:24:33;;;;;;;8.07;1.35;;;;;;;;;;5024952;28;20132;-87
2021/05/16 10:27:22;;;;;;;6.38;1.30;;;;;;;;;;4994395;28;20502;-88
2021/05/16 10:30:03;;;;;;;3.78;1.10;;;;;;;;;;4998332;28;20022;-90
2021/05/16 10:32:41;;;;;;;5.40;1.00;;;;;;;;;;4999470;28;20034;-88
2021/05/16 10:35:13;;;;;;;3.47;0.70;;;;;;;;;;4993331;28;20045;-88
2021/05/16 10:37:54;;;;;;;3.05;0.60;;;;;;;;;;4995202;28;20038;-86
2021/05/16 10:40:31;;;;;;;6.50;1.27;;;;;;;;;;4996893;28;20107;-86
2021/05/16 10:43:03;;;;;;;5.25;1.30;;;;;;;;;;4992448;28;20583;-87
2021/05/16 10:45:34;;;;;;;5.05;1.27;;;;;;;;;;4982124;28;20041;-88
2021/05/16 10:48:20;;;;;;;4.72;1.05;;;;;;;;;;4982019;28;20099;-83
2021/05/16 10:51:02;;;;;;;4.28;0.95;;;;;;;;;;4976511;28;20022;-81
2021/05/16 10:53:33;;;;;;;5.40;1.13;;;;;;;;;;4983348;28;20045;-83
2021/05/16 10:56:10;;;;;;;5.68;1.00;;;;;;;;;;4980274;28;20115;-83
2021/05/16 10:58:42;;;;;;;4.88;1.27;;;;;;;;;;5002338;28;20120;-83
2021/05/16 11:01:29;;;;;;;5.50;1.20;;;;;;;;;;5002166;28;20053;-84
2021/05/16 11:04:00;;;;;;;6.05;1.38;;;;;;;;;;5008362;28;20040;-84
2021/05/16 11:06:41;;;;;;;3.80;1.00;;;;;;;;;;5008982;28;20109;-83
2021/05/16 11:09:11;;;;;;;5.70;1.08;;;;;;;;;;5004729;28;20459;-84
2021/05/16 11:11:38;;;;;;;7.47;1.50;;;;;;;;;;4991506;28;20084;-82
2021/05/16 11:14:24;;;;;;;11.07;4.95;;;;;;;;;;5002833;28;20029;-85
2021/05/16 11:16:56;;;;;;;6.93;2.50;;;;;;;;;;4999245;28;20713;-85
2021/05/16 11:19:24;;;;;;;6.53;1.58;;;;;;;;;;5007045;28;20140;-84
2021/05/16 11:21:53;;;;;;;5.13;1.25;;;;;;;;;;5008295;28;20036;-84
2021/05/16 11:24:35;;;;;;;4.03;0.98;;;;;;;;;;4992338;28;20087;-84
2021/05/16 11:27:03;;;;;;;5.30;1.30;;;;;;;;;;4999984;28;20033;-84
2021/05/16 11:29:30;;;;;;;4.95;1.60;;;;;;;;;;5009575;28;20053;-83
2021/05/16 11:32:04;;;;;;;5.53;1.55;;;;;;;;;;4987334;28;20473;-82
2021/05/16 11:34:37;;;;;;;4.88;1.00;;;;;;;;;;4989898;28;20034;-82
2021/05/16 11:37:20;;;;;;;6.05;1.40;;;;;;;;;;4987727;28;20124;-83
2021/05/16 11:39:47;;;;;;;5.97;1.33;;;;;;;;;;5007786;28;20592;-83
2021/05/16 11:42:14;;;;;;;8.07;1.33;;;;;;;;;;4988322;28;20136;-80
2021/05/16 11:44:41;;;;;;;4.40;1.00;;;;;;;;;;5011963;28;20036;-82
2021/05/16 11:47:08;;;;;;;5.13;1.20;;;;;;;;;;5005403;28;20025;-81
2021/05/16 11:49:35;;;;;;;3.58;0.70;;;;;;;;;;5008972;28;20025;-82
2021/05/16 11:52:04;;;;;;;4.25;1.10;;;;;;;;;;5006776;28;20037;-83
2021/05/16 11:54:43;;;;;;;4.82;0.90;;;;;;;;;;5010913;28;20025;-87
2021/05/16 11:57:20;;;;;;;5.03;1.13;;;;;;;;;;5008659;28;20048;-86
2021/05/16 11:59:47;;;;;;;4.90;1.10;;;;;;;;;;5012403;28;20037;-80
2021/05/16 12:02:15;;;;;;;4.82;1.10;;;;;;;;;;5007277;28;20080;-83
2021/05/16 12:04:42;;;;;;;3.33;0.82;;;;;;;;;;5013393;28;20033;-83
2021/05/16 12:07:10;;;;;;;9.70;3.13;;;;;;;;;;5007348;28;20037;-83
2021/05/16 12:09:42;;;;;;;6.15;1.50;;;;;;;;;;5014101;28;20029;-88
2021/05/16 12:12:25;;;;;;;4.93;1.10;;;;;;;;;;5006821;28;20029;-82
2021/05/16 12:14:57;;;;;;;4.93;0.90;;;;;;;;;;5013526;28;20041;-84
2021/05/16 12:17:33;;;;;;;6.43;0.95;;;;;;;;;;5012031;28;20037;-87
2021/05/16 12:20:01;;;;;;;5.07;1.00;;;;;;;;;;5016011;28;20103;-85
2021/05/16 12:22:41;;;;;;;3.53;0.90;;;;;;;;;;5020113;28;20124;-88
2021/05/16 12:25:10;;;;;;;4.30;1.10;;;;;;;;;;5010109;28;20037;-84
2021/05/16 12:27:37;;;;;;;4.60;1.00;;;;;;;;;;5014247;28;20017;-87
2021/05/16 12:30:10;;;;;;;4.78;1.02;;;;;;;;;;5013015;28;20425;-87
2021/05/16 12:32:39;;;;;;;3.53;0.80;;;;;;;;;;5013872;28;20025;-89
2021/05/16 12:35:10;;;;;;;4.55;1.00;;;;;;;;;;5004488;28;20035;-83
2021/05/16 12:37:38;;;;;;;4.40;0.95;;;;;;;;;;5013213;28;20076;-87
2021/05/16 12:40:05;;;;;;;5.95;1.20;;;;;;;;;;5013273;28;20045;-84
2021/05/16 12:42:41;;;;;;;4.97;1.10;;;;;;;;;;5012099;28;20037;-84
2021/05/16 12:45:21;;;;;;;4.93;1.15;;;;;;;;;;4991343;28;20561;-85
2021/05/16 12:48:06;;;;;;;3.72;1.00;;;;;;;;;;5013273;28;20030;-87
2021/05/16 12:50:34;;;;;;;4.47;1.10;;;;;;;;;;5009908;28;20480;-84
2021/05/16 12:53:21;;;;;;;3.88;1.00;;;;;;;;;;5008871;28;20585;-87
2021/05/16 12:55:50;;;;;;;4.45;1.13;;;;;;;;;;5005149;28;20029;-81
2021/05/16 12:59:21;;;;;;;4.80;1.08;;;;;;;;;;4991142;28;20033;-86
2021/05/16 13:01:25;;;;;;;6.28;1.20;;;;;;;;;;4999620;28;20033;-82
2021/05/16 13:03:51;;;;;;;;;;;;;;;;;;5005300;28;20071;-83
2021/05/16 13:06:18;;;;;;;5.22;1.10;;;;;;;;;;5011430;28;20280;-85
2021/05/16 13:08:52;;;;;;;5.85;1.08;;;;;;;;;;5010906;28;20116;-83
2021/05/16 13:11:19;;;;;;;7.93;1.35;;;;;;;;;;5008214;28;20029;-83
2021/05/16 13:13:46;;;;;;;7.78;1.20;;;;;;;;;;5007309;28;20096;-83
2021/05/16 13:16:15;;;;;;;4.95;1.15;;;;;;;;;;5006518;28;20067;-86
2021/05/16 13:18:44;;;;;;;6.30;1.13;;;;;;;;;;5008153;28;20426;-83
2021/05/16 13:21:20;;;;;;;5.65;1.42;;;;;;;;;;5006310;28;21404;-83
2021/05/16 13:23:51;;;;;;;8.48;1.13;;;;;;;;;;5020075;28;20032;-85
2021/05/16 13:26:39;;;;;;;5.05;1.35;;;;;;;;;;5023087;28;20041;-84
2021/05/16 13:29:14;;;;;;;5.35;1.08;;;;;;;;;;5021708;28;20025;-83
2021/05/16 13:31:43;;;;;;;4.03;0.95;;;;;;;;;;5015977;28;20037;-84
2021/05/16 13:34:23;;;;;;;5.88;1.17;;;;;;;;;;4983371;28;20057;-82
2021/05/16 13:36:57;;;;;;;5.15;1.15;;;;;;;;;;4992344;28;20281;-84
2021/05/16 13:39:28;;;;;;;4.90;0.87;;;;;;;;;;4990752;28;20133;-84
2021/05/16 13:41:59;;;;;;;4.88;0.80;;;;;;;;;;4982933;28;20049;-84
2021/05/16 13:44:28;;;;;;;3.47;0.90;;;;;;;;;;4980939;28;20514;-85
2021/05/16 13:46:54;;;;;;;4.82;0.80;;;;;;;;;;4983448;28;20187;-85
2021/05/16 13:49:21;;;;;;;5.38;0.90;;;;;;;;;;4969944;28;20513;-84
2021/05/16 13:51:57;;;;;;;4.72;0.98;;;;;;;;;;4978972;28;20037;-84
2021/05/16 13:54:32;;;;;;;3.38;0.80;;;;;;;;;;4984768;28;20072;-86
2021/05/16 13:57:03;;;;;;;6.40;1.27;;;;;;;;;;4971685;28;20048;-83
2021/05/16 13:59:30;;;;;;;4.35;0.70;;;;;;;;;;4980935;28;20038;-86
2021/05/16 14:01:59;;;;;;;3.38;0.80;;;;;;;;;;4971693;28;20029;-85
2021/05/16 14:04:28;;;;;;;4.43;0.93;;;;;;;;;;4978015;28;20076;-84
2021/05/16 14:06:58;;;;;;;4.45;0.90;;;;;;;;;;5003027;28;20026;-84
2021/05/16 14:09:27;;;;;;;3.92;1.00;;;;;;;;;;5008349;28;20025;-84
2021/05/16 14:12:15;;;;;;;4.68;0.90;;;;;;;;;;5002632;28;20037;-84
2021/05/16 14:14:46;;;;;;;5.50;0.95;;;;;;;;;;5001877;28;20128;-83
2021/05/16 14:17:14;;;;;;;2.60;0.68;;;;;;;;;;4998746;28;20045;-84
2021/05/16 14:19:42;;;;;;;5.28;0.85;;;;;;;;;;5018835;28;20033;-86
2021/05/16 14:22:09;;;;;;;4.40;0.85;;;;;;;;;;5005729;28;20048;-84
2021/05/16 14:24:38;;;;;;;4.30;0.88;;;;;;;;;;5007289;28;20022;-83
2021/05/16 14:27:06;;;;;;;3.25;0.90;;;;;;;;;;5007689;28;20030;-85
2021/05/16 14:29:33;;;;;;;5.20;1.20;;;;;;;;;;5015350;28;20469;-86
2021/05/16 14:32:00;;;;;;;4.13;0.80;;;;;;;;;;5009937;28;20025;-87
2021/05/16 14:34:27;;;;;;;4.65;0.85;;;;;;;;;;5014320;28;20079;-85
2021/05/16 14:36:53;;;;;;;3.60;0.80;;;;;;;;;;5013515;28;20025;-84
2021/05/16 14:39:20;;;;;;;3.15;0.80;;;;;;;;;;5018786;28;20045;-83
2021/05/16 14:41:46;;;;;;;5.32;0.80;;;;;;;;;;5013409;28;20025;-84
2021/05/16 14:44:12;;;;;;;3.30;0.75;;;;;;;;;;5009970;28;20046;-83
2021/05/16 14:46:40;;;;;;;3.30;0.73;;;;;;;;;;5010350;28;20029;-83
2021/05/16 14:49:06;;;;;;;2.47;0.80;;;;;;;;;;5011453;28;20025;-84
2021/05/16 14:51:34;;;;;;;3.67;0.80;;;;;;;;;;5007816;28;20116;-83
2021/05/16 14:54:02;;;;;;;3.75;0.90;;;;;;;;;;4969778;28;20117;-86
2021/05/16 14:56:31;;;;;;;6.65;1.00;;;;;;;;;;4957821;28;20042;-86
2021/05/16 14:58:57;;;;;;;4.75;0.70;;;;;;;;;;4952962;28;20057;-86